Airfield :
LOGIN :

Register | Disclaimer

   EN    FR    IT 

 










Legend :    VFR   Marginal VFR   IFR   Intensive IFR   Very Intensive IFR
Visi :
Ceiling :
>= 8 km
>= 3000ft
5 to 8 km
1000 to 3000 ft
1500m to 5 km
500 to 1000 ft
800 to 1500m
200 to 500 ft
< 800m
< 200 ft
Symbols :   Thunderstorms  Fog  Heavy snow  Heavy precipitations  Wind > 20 kt
SIGMETs :     Misc.  Thunderstorms  Icing  Turbulence  Mountain Waves  Volcanic Ashes







- Airport Elevation : 465 ft
- IATA code : LEJ


EDDP - Leipzig Halle

CURRENT METAR :
  • 181520Z 26012KT CAVOK 23/11 Q1020 NOSIG

EXPIRED METARs :
  • 181450Z 25012KT CAVOK 23/10 Q1020 NOSIG
  • 181420Z 26012KT CAVOK 24/10 Q1020 NOSIG
  • 181350Z 25013KT 210V300 CAVOK 23/11 Q1020 NOSIG
  • 181320Z 27009KT 230V310 CAVOK 24/10 Q1020 NOSIG
  • 181250Z 24007KT 210V280 CAVOK 22/09 Q1020 NOSIG

TAF TAF EDDP
Valid from the 18 at 12:00 until the 19 at 12:00 UTC


181100Z 1812/1912 25010KT 9999 SCT045
BECMG 1817/1820 23005KT
BECMG 1905/1908 25010KT
No reported NOTAMs for that airfield.



MET'MAP, your aeronautical weather chart ! - Copyright ORBIFLY December 2007 - Disclaimer

ORBIFLY MET'MAP TEAM :

Programming & Development : Alexandra Zaïnal
Concept & Development : Baudouin d'Aumeries
Co-Development & Prog : Marc-Olivier Méhu
Technical & hardware support : Manuel Goepfert

Contact : metmap@orbifly.com




SOURCES & CREDITS :

   NOAA